Time;durP1;ratioP1;P1;durP2;ratioP2;P2;SDS_P1;SDS_P2;PMS_P1;PMS_P2;Temp;Humidity;BMP_temperature;BMP_pressure;BME280_temperature;BME280_humidity;BME280_pressure;Samples;Min_cycle;Max_cycle;Signal;HPM_P1;HPM_P2
2023/03/07 00:01:36;;;;;;;10.15;9.38;;;;;;;4.06;100.00;99832.91;5029505;28;20035;-57
2023/03/07 00:04:04;;;;;;;9.88;9.18;;;;;;;4.00;100.00;99838.50;5027178;28;20075;-56
2023/03/07 00:06:29;;;;;;;10.40;9.60;;;;;;;4.01;100.00;99837.53;5030383;28;20035;-56
2023/03/07 00:08:57;;;;;;;9.18;8.52;;;;;;;3.91;100.00;99832.84;5030851;28;20393;-57
2023/03/07 00:11:26;;;;;;;8.18;7.65;;;;;;;3.89;100.00;99829.47;5029247;28;20025;-56
2023/03/07 00:13:51;;;;;;;7.55;7.05;;;;;;;3.87;100.00;99822.47;5028987;28;20034;-57
2023/03/07 00:16:19;;;;;;;7.68;7.13;;;;;;;3.78;100.00;99833.47;5028420;28;20021;-57
2023/03/07 00:18:45;;;;;;;7.18;6.68;;;;;;;3.76;100.00;99816.91;5028368;28;20037;-57
2023/03/07 00:21:14;;;;;;;6.60;6.20;;;;;;;3.72;100.00;99823.28;5026103;28;20435;-57
2023/03/07 00:23:41;;;;;;;5.80;5.35;;;;;;;3.67;100.00;99816.53;5026615;28;20032;-56
2023/03/07 00:26:20;;;;;;;6.43;6.03;;;;;;;3.62;100.00;99815.03;5029859;28;20060;-57
2023/03/07 00:28:47;;;;;;;6.72;6.32;;;;;;;3.54;100.00;99800.56;5031316;28;20029;-56
2023/03/07 00:31:13;;;;;;;8.05;7.40;;;;;;;3.56;100.00;99804.81;5030862;28;20029;-56
2023/03/07 00:33:39;;;;;;;7.07;6.43;;;;;;;3.61;100.00;99804.56;5028660;28;20036;-56
2023/03/07 00:36:10;;;;;;;7.03;6.63;;;;;;;3.69;100.00;99805.03;5030340;28;20392;-56
2023/03/07 00:38:35;;;;;;;7.03;6.63;;;;;;;3.64;100.00;99804.41;5027878;28;20362;-56
2023/03/07 00:41:05;;;;;;;6.35;5.85;;;;;;;3.66;100.00;99805.19;5027888;28;20104;-57
2023/03/07 00:43:32;;;;;;;6.22;5.93;;;;;;;3.67;100.00;99799.00;5026459;28;20056;-56
2023/03/07 00:45:58;;;;;;;5.95;5.65;;;;;;;3.67;100.00;99803.41;5025829;28;20479;-56
2023/03/07 00:48:24;;;;;;;6.30;5.90;;;;;;;3.68;100.00;99797.19;5028855;28;20065;-57
2023/03/07 00:50:50;;;;;;;6.68;6.15;;;;;;;3.70;100.00;99797.97;5028300;28;20029;-57
2023/03/07 00:53:16;;;;;;;7.03;6.63;;;;;;;3.73;100.00;99788.16;5027707;28;20086;-57
2023/03/07 00:55:41;;;;;;;6.10;5.78;;;;;;;3.69;100.00;99794.50;5029421;28;20026;-57
2023/03/07 00:58:09;;;;;;;6.30;5.90;;;;;;;3.73;100.00;99797.81;5029069;28;20408;-57
2023/03/07 01:00:35;;;;;;;6.32;5.93;;;;;;;3.70;100.00;99790.94;5027969;28;20083;-57
2023/03/07 01:03:02;;;;;;;6.68;6.28;;;;;;;3.70;100.00;99793.56;5028494;28;20057;-56
2023/03/07 01:05:27;;;;;;;7.78;7.28;;;;;;;3.75;100.00;99788.94;5030675;28;20562;-56
2023/03/07 01:07:53;;;;;;;7.95;7.45;;;;;;;3.72;100.00;99794.34;5030537;28;20052;-56
2023/03/07 01:10:18;;;;;;;7.80;7.20;;;;;;;3.76;100.00;99789.78;5010600;28;20100;-57
2023/03/07 01:12:44;;;;;;;7.28;6.78;;;;;;;3.73;100.00;99782.88;5027977;28;20040;-56
2023/03/07 01:15:10;;;;;;;8.30;7.72;;;;;;;3.73;100.00;99780.25;5028907;28;20029;-56
2023/03/07 01:17:35;;;;;;;8.10;7.50;;;;;;;3.73;100.00;99782.88;5028446;28;20029;-57
2023/03/07 01:20:02;;;;;;;7.78;7.28;;;;;;;3.75;100.00;99777.56;5029688;28;20036;-56
2023/03/07 01:22:30;;;;;;;9.43;8.77;;;;;;;3.67;100.00;99764.81;5028961;28;20397;-56
2023/03/07 01:24:55;;;;;;;8.27;7.78;;;;;;;3.75;100.00;99774.94;5027040;28;20029;-57
2023/03/07 01:27:20;;;;;;;7.82;7.32;;;;;;;3.77;100.00;99770.47;5033539;28;20037;-57
2023/03/07 01:29:46;;;;;;;9.95;9.35;;;;;;;3.75;100.00;99759.16;5034397;28;20026;-57
2023/03/07 01:32:13;;;;;;;7.97;7.47;;;;;;;3.78;100.00;99754.59;5032212;28;20037;-57
2023/03/07 01:34:42;;;;;;;9.10;8.50;;;;;;;3.83;100.00;99746.47;5029548;28;20029;-57
2023/03/07 01:37:07;;;;;;;10.43;9.73;;;;;;;3.76;100.00;99752.97;5032743;28;20025;-56
2023/03/07 01:39:35;;;;;;;10.07;9.27;;;;;;;3.70;100.00;99735.72;5030111;28;20036;-56
2023/03/07 01:42:00;;;;;;;10.48;9.70;;;;;;;3.89;100.00;99743.50;5031039;28;20041;-57
2023/03/07 01:44:26;;;;;;;10.90;10.15;;;;;;;3.81;100.00;99743.91;5033828;28;20045;-57
2023/03/07 01:46:56;;;;;;;10.60;9.82;;;;;;;3.81;100.00;99746.53;5031751;28;20396;-57
2023/03/07 01:49:29;;;;;;;10.27;9.38;;;;;;;3.85;100.00;99745.47;5032152;28;20039;-56
2023/03/07 01:52:15;;;;;;;10.68;9.90;;;;;;;3.85;100.00;99753.34;5032892;28;20481;-56
2023/03/07 01:54:47;;;;;;;11.13;10.23;;;;;;;3.80;100.00;99747.47;5033279;28;20071;-56
2023/03/07 01:57:14;;;;;;;11.88;10.88;;;;;;;3.85;100.00;99744.59;5033646;28;20017;-56
2023/03/07 01:59:43;;;;;;;10.95;10.15;;;;;;;3.79;100.00;99739.66;5049114;28;20024;-56
2023/03/07 02:02:18;;;;;;;11.27;10.48;;;;;;;3.82;100.00;99743.00;5045081;28;20029;-56
2023/03/07 02:04:48;;;;;;;11.60;10.60;;;;;;;3.77;100.00;99733.66;5031483;28;20033;-57
2023/03/07 02:07:15;;;;;;;11.48;10.48;;;;;;;3.71;100.00;99719.03;5033785;28;20032;-56
2023/03/07 02:09:42;;;;;;;13.02;12.02;;;;;;;3.73;100.00;99729.47;5029480;28;20029;-56
2023/03/07 02:12:10;;;;;;;10.80;9.98;;;;;;;3.75;100.00;99731.06;5033807;28;20021;-56
2023/03/07 02:14:36;;;;;;;10.88;9.98;;;;;;;3.71;100.00;99721.66;5033340;28;20025;-57
2023/03/07 02:17:04;;;;;;;12.65;11.75;;;;;;;3.62;100.00;99712.47;5033114;28;20025;-56
2023/03/07 02:19:55;;;;;;;11.63;10.82;;;;;;;3.73;100.00;99726.81;5030966;28;20493;-56
2023/03/07 02:22:21;;;;;;;11.98;11.07;;;;;;;3.72;100.00;99719.88;5029624;28;20029;-56
2023/03/07 02:25:02;;;;;;;12.48;11.40;;;;;;;3.73;100.00;99722.41;5046089;28;20039;-57
2023/03/07 02:27:30;;;;;;;12.75;11.57;;;;;;;3.70;100.00;99717.31;5032996;28;20388;-56
2023/03/07 02:29:58;;;;;;;11.68;10.70;;;;;;;3.73;100.00;99722.41;5038287;28;20375;-57
2023/03/07 02:32:24;;;;;;;10.88;10.10;;;;;;;3.75;100.00;99714.47;5047671;28;20028;-56
2023/03/07 02:34:49;;;;;;;12.00;11.07;;;;;;;3.72;100.00;99712.84;5047524;28;20035;-56
2023/03/07 02:37:26;;;;;;;10.25;9.50;;;;;;;3.74;100.00;99710.13;5042746;28;20017;-57
2023/03/07 02:39:53;;;;;;;11.73;10.82;;;;;;;3.68;100.00;99699.91;5028578;28;20383;-56
2023/03/07 02:42:22;;;;;;;10.63;9.77;;;;;;;3.76;100.00;99705.63;5032687;28;20029;-56
2023/03/07 02:44:56;;;;;;;;;;;;;;;3.90;100.00;99700.47;5029868;28;20054;-56
2023/03/07 02:47:22;;;;;;;10.07;9.27;;;;;;;3.71;100.00;99687.47;5030069;28;20268;-57
2023/03/07 02:49:47;;;;;;;10.95;10.05;;;;;;;3.72;100.00;99689.16;5029864;28;20079;-56
2023/03/07 02:52:13;;;;;;;9.73;9.02;;;;;;;3.76;100.00;99698.59;5025992;28;20018;-57
2023/03/07 02:54:38;;;;;;;11.13;10.32;;;;;;;3.71;100.00;99700.63;5032151;28;20053;-56
2023/03/07 02:57:04;;;;;;;10.32;9.43;;;;;;;3.72;100.00;99693.59;5032918;28;20071;-56
2023/03/07 02:59:29;;;;;;;9.23;8.52;;;;;;;3.72;100.00;99702.31;5032445;28;20033;-56
2023/03/07 03:01:56;;;;;;;11.52;10.52;;;;;;;3.67;100.00;99692.97;5030247;28;20029;-57
2023/03/07 03:04:21;;;;;;;11.48;10.35;;;;;;;3.68;100.00;99695.53;5032542;28;20061;-56
2023/03/07 03:06:47;;;;;;;11.18;10.38;;;;;;;3.69;100.00;99685.88;5032525;28;20060;-57
2023/03/07 03:09:12;;;;;;;11.38;10.57;;;;;;;3.71;100.00;99691.91;5032312;28;20025;-56
2023/03/07 03:11:38;;;;;;;11.85;11.00;;;;;;;3.70;100.00;99690.19;5028881;28;20021;-57
2023/03/07 03:14:03;;;;;;;10.73;9.75;;;;;;;3.67;100.00;99692.97;5030824;28;20021;-57
2023/03/07 03:16:29;;;;;;;10.13;9.32;;;;;;;3.68;100.00;99692.03;5030693;28;20519;-57
2023/03/07 03:18:54;;;;;;;10.73;9.82;;;;;;;3.67;100.00;99696.44;5029022;28;20040;-57
2023/03/07 03:21:19;;;;;;;12.82;11.73;;;;;;;3.58;100.00;99675.91;5032066;28;20057;-57
2023/03/07 03:23:45;;;;;;;11.40;10.43;;;;;;;3.71;100.00;99687.47;5031417;28;20083;-57
2023/03/07 03:26:10;;;;;;;12.60;11.48;;;;;;;3.67;100.00;99682.47;5027772;28;20051;-57
2023/03/07 03:28:37;;;;;;;11.32;10.43;;;;;;;3.67;100.00;99680.66;5031599;28;20029;-57
2023/03/07 03:31:09;;;;;;;11.77;10.90;;;;;;;3.70;100.00;99691.03;5026635;28;20075;-57
2023/03/07 03:33:34;;;;;;;12.32;11.27;;;;;;;3.72;100.00;99688.31;5030313;28;20026;-57
2023/03/07 03:36:06;;;;;;;12.75;11.55;;;;;;;3.67;100.00;99685.94;5031712;28;20024;-57
2023/03/07 03:38:32;;;;;;;11.18;10.25;;;;;;;3.67;100.00;99678.03;5031425;28;20033;-57
2023/03/07 03:41:02;;;;;;;11.55;10.55;;;;;;;3.61;100.00;99673.97;5042302;28;20052;-57
2023/03/07 03:43:28;;;;;;;12.18;11.07;;;;;;;3.61;100.00;99673.13;5049971;28;20084;-57
2023/03/07 03:45:55;;;;;;;12.07;11.07;;;;;;;3.60;100.00;99671.44;5048837;28;20056;-57
2023/03/07 03:48:20;;;;;;;11.57;10.68;;;;;;;3.59;100.00;99665.31;5041427;28;20060;-57
2023/03/07 03:50:48;;;;;;;13.55;12.55;;;;;;;3.62;100.00;99659.91;5033147;28;20441;-57
2023/03/07 03:53:14;;;;;;;11.85;10.95;;;;;;;3.61;100.00;99659.97;5050715;28;20468;-57
2023/03/07 03:55:39;;;;;;;12.80;11.63;;;;;;;3.68;100.00;99660.47;5049345;28;20036;-57
2023/03/07 03:58:05;;;;;;;13.55;12.25;;;;;;;3.55;100.00;99642.75;5040837;28;20013;-57
2023/03/07 04:00:30;;;;;;;11.45;10.43;;;;;;;3.62;100.00;99654.66;5049490;28;20025;-56
2023/03/07 04:02:58;;;;;;;12.45;11.45;;;;;;;3.58;100.00;99647.84;5037563;28;20026;-56
2023/03/07 04:05:23;;;;;;;11.65;10.52;;;;;;;3.64;100.00;99642.25;5043679;28;20024;-57
2023/03/07 04:07:49;;;;;;;10.75;9.95;;;;;;;3.63;100.00;99644.97;5034328;28;20017;-57
2023/03/07 04:10:14;;;;;;;11.95;11.15;;;;;;;3.59;100.00;99638.19;5046844;28;20025;-56
2023/03/07 04:12:40;;;;;;;10.57;9.77;;;;;;;3.67;100.00;99637.75;5035676;28;20033;-56
2023/03/07 04:15:06;;;;;;;11.27;10.48;;;;;;;3.62;100.00;99640.66;5032491;28;20040;-57
2023/03/07 04:17:32;;;;;;;9.55;8.85;;;;;;;3.64;100.00;99631.72;5029225;28;20030;-57
2023/03/07 04:19:58;;;;;;;11.75;10.85;;;;;;;3.59;100.00;99625.91;5050324;28;20029;-56
2023/03/07 04:22:23;;;;;;;9.40;8.70;;;;;;;3.62;100.00;99615.22;5049281;28;20038;-56
2023/03/07 04:24:49;;;;;;;11.25;10.40;;;;;;;3.64;100.00;99615.09;5049509;28;20044;-56
2023/03/07 04:27:15;;;;;;;10.10;9.30;;;;;;;3.60;100.00;99616.22;5050761;28;20379;-57
2023/03/07 04:29:40;;;;;;;10.05;9.27;;;;;;;3.57;100.00;99616.38;5040907;28;20462;-57
2023/03/07 04:32:06;;;;;;;10.20;9.38;;;;;;;3.55;100.00;99611.19;5048384;28;20056;-57
2023/03/07 04:34:31;;;;;;;10.85;9.88;;;;;;;3.57;100.00;99619.03;5044339;28;20033;-57
2023/03/07 04:36:57;;;;;;;10.50;9.70;;;;;;;3.54;100.00;99611.31;5029866;28;20384;-57
2023/03/07 04:39:22;;;;;;;10.40;9.40;;;;;;;3.58;100.00;99605.78;5039672;28;20013;-57
2023/03/07 04:41:47;;;;;;;11.20;10.48;;;;;;;3.53;100.00;99614.84;5047800;28;20111;-57
2023/03/07 04:44:15;;;;;;;10.02;9.13;;;;;;;3.56;100.00;99602.41;5048057;28;20045;-58
2023/03/07 04:46:40;;;;;;;11.18;10.35;;;;;;;3.52;100.00;99597.38;5049805;28;20116;-57
2023/03/07 04:49:08;;;;;;;10.75;9.85;;;;;;;3.63;100.00;99610.78;5032343;28;20130;-57
2023/03/07 04:51:33;;;;;;;10.40;9.50;;;;;;;3.54;100.00;99600.78;5049690;28;20021;-57
2023/03/07 04:53:59;;;;;;;11.20;10.25;;;;;;;3.50;100.00;99594.84;5042561;28;20036;-57
2023/03/07 04:56:24;;;;;;;11.25;10.25;;;;;;;3.56;100.00;99596.28;5027969;28;20071;-57
2023/03/07 04:58:50;;;;;;;12.45;11.55;;;;;;;3.47;100.00;99584.50;5031039;28;20468;-57
2023/03/07 05:01:18;;;;;;;12.00;11.00;;;;;;;3.53;100.00;99591.19;5033017;28;20453;-57
2023/03/07 05:03:43;;;;;;;12.02;10.50;;;;;;;3.46;100.00;99581.94;5034842;28;20092;-57
2023/03/07 05:06:13;;;;;;;12.38;11.48;;;;;;;3.48;100.00;99594.06;5033472;28;20117;-57
2023/03/07 05:08:38;;;;;;;11.07;10.15;;;;;;;3.50;100.00;99597.47;5034690;28;20041;-57
2023/03/07 05:11:06;;;;;;;11.45;10.43;;;;;;;3.48;100.00;99594.06;5032053;28;20495;-57
2023/03/07 05:13:31;;;;;;;11.18;9.88;;;;;;;3.49;100.00;99589.66;5033078;28;20078;-57
2023/03/07 05:15:58;;;;;;;12.77;11.57;;;;;;;3.51;100.00;99590.44;5034426;28;20431;-58
2023/03/07 05:18:25;;;;;;;11.57;10.50;;;;;;;3.49;100.00;99593.13;5035561;28;20052;-57
2023/03/07 05:20:50;;;;;;;12.00;10.90;;;;;;;3.50;100.00;99580.84;5034667;28;20368;-58
2023/03/07 05:23:17;;;;;;;13.35;12.23;;;;;;;3.52;100.00;99579.81;5034833;28;20021;-57
2023/03/07 05:25:45;;;;;;;12.30;11.23;;;;;;;3.48;100.00;99580.09;5032508;28;20029;-56
2023/03/07 05:28:11;;;;;;;11.45;10.45;;;;;;;3.45;100.00;99564.50;5033924;28;20480;-58
2023/03/07 05:30:36;;;;;;;12.13;11.13;;;;;;;3.46;100.00;99561.75;5033023;28;20141;-57
2023/03/07 05:33:01;;;;;;;12.05;11.02;;;;;;;3.50;100.00;99557.19;5034319;28;20472;-57
2023/03/07 05:35:29;;;;;;;12.45;11.27;;;;;;;3.53;100.00;99555.25;5031865;28;20039;-56
2023/03/07 05:37:54;;;;;;;11.35;10.15;;;;;;;3.54;100.00;99551.69;5034298;28;20030;-56
2023/03/07 05:40:20;;;;;;;11.55;10.65;;;;;;;3.56;100.00;99544.56;5032744;28;20026;-56
2023/03/07 05:42:45;;;;;;;12.57;11.38;;;;;;;3.56;100.00;99556.84;5030395;28;20472;-57
2023/03/07 05:45:11;;;;;;;12.95;11.85;;;;;;;3.55;100.00;99556.00;5032590;28;20071;-57
2023/03/07 05:47:37;;;;;;;11.10;10.00;;;;;;;3.61;100.00;99560.91;5031849;28;20465;-57
2023/03/07 05:50:04;;;;;;;13.45;12.30;;;;;;;3.50;100.00;99555.44;5029165;28;20480;-57
2023/03/07 05:52:30;;;;;;;11.68;10.65;;;;;;;3.58;100.00;99562.88;5033994;28;20539;-57
2023/03/07 05:54:55;;;;;;;12.20;11.23;;;;;;;3.51;100.00;99551.00;5031564;28;20033;-56
2023/03/07 05:57:21;;;;;;;12.98;11.75;;;;;;;3.50;100.00;99547.53;5030196;28;20021;-57
2023/03/07 05:59:47;;;;;;;12.18;11.18;;;;;;;3.52;100.00;99547.44;5033164;28;20021;-56
2023/03/07 06:02:15;;;;;;;12.82;11.82;;;;;;;3.56;100.00;99554.22;5033959;28;20436;-57
2023/03/07 06:04:45;;;;;;;12.82;11.82;;;;;;;3.57;100.00;99548.88;5030917;28;20037;-57
2023/03/07 06:07:11;;;;;;;12.40;11.15;;;;;;;3.54;100.00;99541.16;5033872;28;20392;-57
2023/03/07 06:09:36;;;;;;;13.57;12.45;;;;;;;3.51;100.00;99556.28;5029578;28;20033;-57
2023/03/07 06:12:04;;;;;;;12.70;11.70;;;;;;;3.46;100.00;99550.41;5030690;28;20032;-57
2023/03/07 06:14:30;;;;;;;13.52;12.40;;;;;;;3.41;100.00;99556.78;5043289;28;20022;-58
2023/03/07 06:16:56;;;;;;;12.82;11.50;;;;;;;3.42;100.00;99555.84;5030299;28;20428;-57
2023/03/07 06:19:23;;;;;;;11.60;10.60;;;;;;;3.43;100.00;99554.03;5033553;28;20029;-57
2023/03/07 06:21:49;;;;;;;12.43;11.43;;;;;;;3.36;100.00;99542.19;5033499;28;20399;-57
2023/03/07 06:24:14;;;;;;;11.77;10.88;;;;;;;3.38;100.00;99553.44;5029875;28;20025;-58
2023/03/07 06:26:40;;;;;;;11.00;10.10;;;;;;;3.39;100.00;99552.53;5029812;28;20438;-57
2023/03/07 06:29:05;;;;;;;11.85;10.90;;;;;;;3.35;100.00;99541.34;5033390;28;20021;-57
2023/03/07 06:31:30;;;;;;;13.05;11.93;;;;;;;3.42;100.00;99565.50;5031980;28;20017;-56
2023/03/07 06:33:56;;;;;;;11.20;10.18;;;;;;;3.34;100.00;99555.41;5031357;28;20010;-57
2023/03/07 06:36:22;;;;;;;11.25;10.35;;;;;;;3.22;100.00;99563.09;5030757;28;20029;-57
2023/03/07 06:38:47;;;;;;;10.35;9.55;;;;;;;3.21;100.00;99569.25;5029287;28;20076;-57
2023/03/07 06:41:13;;;;;;;10.15;9.35;;;;;;;3.11;100.00;99568.91;5030458;28;20025;-57
2023/03/07 06:43:38;;;;;;;8.80;8.18;;;;;;;3.06;100.00;99563.91;5030977;28;20111;-56
2023/03/07 06:46:04;;;;;;;9.43;8.68;;;;;;;2.95;100.00;99555.75;5032573;28;20022;-57
2023/03/07 06:48:30;;;;;;;9.68;8.98;;;;;;;2.92;100.00;99561.16;5033148;28;20025;-57
2023/03/07 06:50:55;;;;;;;9.95;9.07;;;;;;;2.84;100.00;99558.09;5029716;28;20083;-57
2023/03/07 06:53:21;;;;;;;9.88;9.07;;;;;;;2.73;100.00;99562.09;5032515;28;20473;-57
2023/03/07 06:55:52;;;;;;;11.00;10.10;;;;;;;2.66;100.00;99576.47;5030119;28;20079;-57
2023/03/07 06:58:18;;;;;;;11.70;10.75;;;;;;;2.60;100.00;99584.66;5030382;28;20053;-58
2023/03/07 07:00:44;;;;;;;10.05;9.25;;;;;;;2.62;100.00;99579.34;5031001;28;20049;-57
2023/03/07 07:03:17;;;;;;;11.43;10.43;;;;;;;2.50;100.00;99583.44;5032431;28;20021;-57
2023/03/07 07:05:42;;;;;;;10.38;9.48;;;;;;;2.56;100.00;99587.50;5047797;28;20117;-57
2023/03/07 07:08:08;;;;;;;9.35;8.68;;;;;;;2.52;100.00;99588.59;5029131;28;20101;-57
2023/03/07 07:10:33;;;;;;;9.85;9.02;;;;;;;2.48;100.00;99585.28;5029876;28;20383;-57
2023/03/07 07:12:59;;;;;;;11.77;10.70;;;;;;;2.54;100.00;99578.88;5025445;28;20017;-58
2023/03/07 07:15:24;;;;;;;10.25;9.45;;;;;;;2.52;100.00;99580.72;5031289;28;20028;-57
2023/03/07 07:17:51;;;;;;;10.15;9.35;;;;;;;2.42;100.00;99578.56;5028742;28;20445;-57
2023/03/07 07:20:16;;;;;;;10.57;9.73;;;;;;;2.31;100.00;99582.66;5032135;28;20381;-56
2023/03/07 07:22:42;;;;;;;9.98;9.27;;;;;;;2.19;100.00;99581.50;5030034;28;20029;-57
2023/03/07 07:25:08;;;;;;;9.98;9.18;;;;;;;2.11;100.00;99557.41;5029725;28;20029;-57
2023/03/07 07:27:35;;;;;;;10.93;9.93;;;;;;;2.21;100.00;99570.00;5030287;28;20063;-58
2023/03/07 07:30:01;;;;;;;10.45;9.55;;;;;;;2.14;100.00;99581.69;5030285;28;20044;-57
2023/03/07 07:32:26;;;;;;;11.27;10.15;;;;;;;2.13;100.00;99580.00;5031060;28;20029;-57
2023/03/07 07:34:52;;;;;;;12.43;11.25;;;;;;;2.08;100.00;99592.50;5030833;28;20055;-57
2023/03/07 07:37:17;;;;;;;11.98;11.05;;;;;;;2.05;100.00;99595.25;5030766;28;20083;-57
2023/03/07 07:39:42;;;;;;;11.80;10.73;;;;;;;2.08;100.00;99615.25;5030666;28;20033;-57
2023/03/07 07:42:09;;;;;;;11.43;10.45;;;;;;;1.92;100.00;99608.13;5029613;28;20128;-57
2023/03/07 07:44:35;;;;;;;10.63;9.63;;;;;;;2.01;100.00;99615.53;5029105;28;20496;-56
2023/03/07 07:47:00;;;;;;;11.63;10.63;;;;;;;2.03;100.00;99634.69;5031542;28;20037;-57
2023/03/07 07:49:28;;;;;;;11.48;10.40;;;;;;;1.97;100.00;99637.59;5031408;28;20025;-57
2023/03/07 07:51:54;;;;;;;11.82;10.70;;;;;;;1.88;100.00;99639.78;5031427;28;20067;-57
2023/03/07 07:54:19;;;;;;;11.52;10.43;;;;;;;1.85;100.00;99643.41;5029954;28;20025;-57
2023/03/07 07:56:45;;;;;;;12.13;11.02;;;;;;;1.83;100.00;99632.16;5028661;28;20026;-57
2023/03/07 07:59:11;;;;;;;11.07;10.18;;;;;;;1.90;100.00;99633.56;5041641;28;20116;-57
2023/03/07 08:01:39;;;;;;;11.18;10.27;;;;;;;1.93;100.00;99624.69;5035052;28;20114;-57
2023/03/07 08:04:05;;;;;;;10.80;9.90;;;;;;;2.02;100.00;99622.47;5031329;28;20362;-57
2023/03/07 08:06:30;;;;;;;11.50;10.50;;;;;;;2.05;100.00;99621.47;5029648;28;20033;-57
2023/03/07 08:08:59;;;;;;;12.00;10.98;;;;;;;2.08;100.00;99626.59;5051638;28;20430;-57
2023/03/07 08:11:25;;;;;;;11.57;10.60;;;;;;;2.04;100.00;99625.03;5049819;28;20029;-57
2023/03/07 08:13:51;;;;;;;11.57;10.55;;;;;;;2.11;100.00;99634.31;5050421;28;20028;-57
2023/03/07 08:16:19;;;;;;;11.15;10.15;;;;;;;2.17;100.00;99633.16;5033096;28;20472;-57
2023/03/07 08:18:53;;;;;;;11.32;10.43;;;;;;;2.19;100.00;99647.06;5031417;28;20468;-57
2023/03/07 08:21:20;;;;;;;11.68;10.55;;;;;;;2.09;100.00;99644.03;5032156;28;20091;-57
2023/03/07 08:23:45;;;;;;;11.95;10.95;;;;;;;2.02;100.00;99653.09;5051480;28;20091;-57
2023/03/07 08:26:12;;;;;;;11.35;10.45;;;;;;;2.09;100.00;99657.16;5036527;28;20030;-57
2023/03/07 08:28:38;;;;;;;13.15;12.05;;;;;;;2.10;100.00;99653.59;5030373;28;20468;-57
2023/03/07 08:31:19;;;;;;;14.57;13.27;;;;;;;2.20;100.00;99664.47;5031351;28;20030;-57
2023/03/07 08:33:50;;;;;;;14.40;13.20;;;;;;;2.20;100.00;99657.47;5031152;28;20534;-57
2023/03/07 08:36:16;;;;;;;13.77;12.57;;;;;;;2.26;100.00;99662.44;5033566;28;20021;-57
2023/03/07 08:38:42;;;;;;;13.23;12.10;;;;;;;2.25;100.00;99654.63;5035396;28;20476;-57
2023/03/07 08:41:08;;;;;;;14.05;12.85;;;;;;;2.14;100.00;99664.78;5035088;28;20017;-57
2023/03/07 08:43:35;;;;;;;14.07;12.73;;;;;;;2.20;100.00;99651.38;5033811;28;20569;-57
2023/03/07 08:46:01;;;;;;;13.15;12.13;;;;;;;2.15;100.00;99656.00;5035297;28;20068;-57
2023/03/07 08:48:26;;;;;;;12.95;11.85;;;;;;;2.16;100.00;99657.69;5029769;28;20053;-57
2023/03/07 08:50:52;;;;;;;11.75;10.80;;;;;;;2.21;100.00;99663.59;5034761;28;20021;-58
2023/03/07 08:53:18;;;;;;;14.15;13.05;;;;;;;2.10;100.00;99644.88;5040674;28;20033;-57
2023/03/07 08:55:43;;;;;;;13.80;12.70;;;;;;;2.14;100.00;99656.91;5030031;28;20109;-57
2023/03/07 08:58:10;;;;;;;14.10;13.00;;;;;;;2.18;100.00;99659.31;5034522;28;20017;-57
2023/03/07 09:00:36;;;;;;;14.68;13.48;;;;;;;2.26;100.00;99653.69;5037137;28;20064;-57
2023/03/07 09:03:02;;;;;;;15.10;13.80;;;;;;;2.13;100.00;99655.22;5027860;28;20025;-57
2023/03/07 09:05:28;;;;;;;14.95;13.65;;;;;;;2.13;100.00;99642.09;5056340;28;20030;-57
2023/03/07 09:07:54;;;;;;;14.70;13.57;;;;;;;2.19;100.00;99647.06;5026727;28;20071;-57
2023/03/07 09:10:20;;;;;;;14.57;13.48;;;;;;;2.26;100.00;99649.31;5037242;28;20384;-57
2023/03/07 09:12:47;;;;;;;15.52;14.32;;;;;;;2.32;100.00;99653.41;5027804;28;20026;-57
2023/03/07 09:15:14;;;;;;;16.75;15.45;;;;;;;2.19;100.00;99652.31;5029739;28;20155;-57
2023/03/07 09:17:40;;;;;;;16.17;14.95;;;;;;;2.25;100.00;99660.72;5037878;28;20051;-57
2023/03/07 09:20:06;;;;;;;18.52;17.02;;;;;;;2.22;100.00;99665.28;5041504;28;20081;-57
2023/03/07 09:22:34;;;;;;;16.45;15.15;;;;;;;2.18;100.00;99661.94;5032438;28;20487;-57
2023/03/07 09:24:59;;;;;;;17.92;16.52;;;;;;;2.00;100.00;99652.31;5043567;28;20026;-57
2023/03/07 09:27:25;;;;;;;17.77;16.27;;;;;;;2.15;100.00;99669.97;5022937;28;20028;-57
2023/03/07 09:29:51;;;;;;;18.05;16.55;;;;;;;2.15;100.00;99674.38;5038997;28;20021;-57
2023/03/07 09:32:16;;;;;;;18.08;16.55;;;;;;;2.20;100.00;99674.97;5037305;28;20102;-57
2023/03/07 09:34:41;;;;;;;17.85;16.27;;;;;;;2.25;100.00;99691.34;5026993;28;20021;-57
2023/03/07 09:37:07;;;;;;;18.48;16.88;;;;;;;2.20;100.00;99685.47;5026195;28;20550;-57
2023/03/07 09:39:32;;;;;;;17.55;16.13;;;;;;;2.24;100.00;99685.25;5028350;28;20033;-57
2023/03/07 09:42:15;;;;;;;16.52;15.23;;;;;;;2.38;100.00;99682.00;5037875;28;20033;-57
2023/03/07 09:45:30;;;;;;;17.60;16.15;;;;;;;2.46;100.00;99681.59;5034525;28;20041;-57
2023/03/07 09:48:06;;;;;;;17.05;15.55;;;;;;;2.59;100.00;99677.47;5001630;28;20041;-57
2023/03/07 09:50:56;;;;;;;15.73;14.43;;;;;;;2.49;100.00;99677.03;5044827;28;20116;-57
2023/03/07 09:53:39;;;;;;;17.20;15.80;;;;;;;2.57;100.00;99684.56;5038168;28;20079;-57
2023/03/07 09:56:10;;;;;;;16.58;15.18;;;;;;;2.55;100.00;99668.03;5037471;28;20079;-57
2023/03/07 09:58:41;;;;;;;17.50;16.00;;;;;;;2.51;100.00;99666.50;5035918;28;20032;-57
2023/03/07 10:01:11;;;;;;;16.40;15.00;;;;;;;2.51;100.00;99671.75;5033039;28;20024;-57
2023/03/07 10:03:42;;;;;;;17.05;15.73;;;;;;;2.47;100.00;99678.91;5039838;28;20084;-57
2023/03/07 10:06:24;;;;;;;16.75;15.38;;;;;;;2.45;100.00;99675.50;5040662;28;20063;-57
2023/03/07 10:08:50;;;;;;;18.20;16.60;;;;;;;2.53;100.00;99674.28;5039614;28;20035;-57
2023/03/07 10:11:57;;;;;;;17.38;15.77;;;;;;;2.66;100.00;99664.88;5024039;28;20472;-57
2023/03/07 10:14:43;;;;;;;16.10;14.70;;;;;;;2.76;100.00;99678.38;5019128;28;20033;-56
2023/03/07 10:17:21;;;;;;;15.48;14.18;;;;;;;2.64;100.00;99677.22;5025701;28;20124;-56
2023/03/07 10:19:51;;;;;;;14.68;13.57;;;;;;;2.60;100.00;99687.03;5043617;28;20025;-57
2023/03/07 10:22:36;;;;;;;14.13;13.02;;;;;;;2.58;100.00;99672.28;5038752;28;20094;-57
2023/03/07 10:25:07;;;;;;;13.85;12.75;;;;;;;2.55;99.69;99675.06;5041512;28;20107;-57
2023/03/07 10:27:32;;;;;;;12.25;11.30;;;;;;;2.52;99.77;99678.69;5042612;28;20370;-56
2023/03/07 10:30:00;;;;;;;13.93;12.82;;;;;;;2.44;100.00;99680.81;5039569;28;20032;-57
2023/03/07 10:32:35;;;;;;;11.93;11.02;;;;;;;2.50;99.05;99681.38;5039960;28;20106;-56
2023/03/07 10:35:19;;;;;;;11.57;10.68;;;;;;;2.52;99.97;99680.44;5028261;28;20029;-56
2023/03/07 10:37:51;;;;;;;11.50;10.60;;;;;;;2.51;99.55;99682.22;5031583;28;20120;-56
2023/03/07 10:40:35;;;;;;;10.93;10.13;;;;;;;2.50;99.29;99676.16;5038186;28;20029;-57
2023/03/07 10:43:00;;;;;;;11.70;10.82;;;;;;;2.46;99.95;99663.22;5039493;28;20434;-56
2023/03/07 10:45:31;;;;;;;10.73;9.90;;;;;;;2.45;99.58;99678.13;5027277;28;20100;-57
2023/03/07 10:48:06;;;;;;;11.93;11.02;;;;;;;2.50;99.62;99673.53;5039850;28;20018;-57
2023/03/07 10:50:48;;;;;;;11.63;10.63;;;;;;;2.58;100.00;99672.28;5031176;28;20040;-57
2023/03/07 10:53:31;;;;;;;11.18;10.27;;;;;;;2.49;100.00;99677.03;5040744;28;20020;-57
2023/03/07 10:56:17;;;;;;;10.93;10.13;;;;;;;2.56;99.97;99685.50;5025062;28;20537;-57
2023/03/07 10:59:00;;;;;;;11.73;10.93;;;;;;;2.70;100.00;99684.78;5044961;28;20056;-57
2023/03/07 11:01:26;;;;;;;11.05;10.25;;;;;;;2.65;100.00;99658.78;5032287;28;20036;-57
2023/03/07 11:04:01;;;;;;;11.65;10.82;;;;;;;2.82;100.00;99670.22;5044404;28;20033;-57
2023/03/07 11:06:52;;;;;;;10.52;9.82;;;;;;;2.90;100.00;99684.66;5038815;28;20032;-57
2023/03/07 11:09:31;;;;;;;9.65;9.05;;;;;;;2.92;100.00;99679.34;5036293;28;20026;-57
2023/03/07 11:12:00;;;;;;;10.82;10.13;;;;;;;2.85;98.21;99678.78;5030912;28;20048;-57
2023/03/07 11:14:28;;;;;;;9.30;8.70;;;;;;;2.91;99.22;99675.00;5043919;28;20063;-58
2023/03/07 11:16:53;;;;;;;11.45;10.70;;;;;;;2.82;99.24;99676.31;5043993;28;20060;-57
2023/03/07 11:19:27;;;;;;;10.60;9.80;;;;;;;2.80;97.86;99680.81;5041814;28;20048;-57
2023/03/07 11:21:54;;;;;;;10.10;9.30;;;;;;;2.81;98.19;99682.50;5036093;28;20032;-57
2023/03/07 11:24:39;;;;;;;10.82;10.02;;;;;;;2.83;98.16;99662.28;5044347;28;20923;-57
2023/03/07 11:27:04;;;;;;;11.07;10.27;;;;;;;2.85;99.31;99678.78;5031230;28;20131;-57